Moreland, Idaho
Current Conditions -  °F | °C
As of 11:00 PM on Tuesday 27 Jan 2015 (Local Time) from KPIH Reporting Station
Broken Clouds Broken Clouds  
Wind Chill: 32°   Ceiling: 12000
Heat Index: 40°   Visibility: 10mi
Dew Point: 36°   Wind: 14mph
Humidity: 86%   Direction: 220°SW
Pressure: 30.13"   Gusts: NA
Location:  43.22°N, 112.44°W
Report Text: KPIH 280600Z AUTO 22012KT 10SM FEW060 BKN120 04/02 A3013 RMK AO2 WSHFT 0540 T00440022
Loading
Personal Weather Stations






























Interactive Weather Map New forecast layout! Learn more

10-Day Weather Forecast

Advertisements
Track Severe Weather on mobile